Latest Coastal Weather Observations for Kalumburu

IDW60701

Issued at 3:12 am WST Saturday 28 March 2015 (issued every 10 minutes, with the page automatically refreshed every 10 minutes)

About coastal observations | Map of coastal stations | Coastal observations for WA | Marine services | Other Formats
Station Details ID: 001019 Name: KALUMBURU Lat: -14.30 Lon: 126.65 Height: 23.0 m
Data from the previous 72 hours. | See also: Recent months at Kalumburu
Date/Time
WST
Temp

°C
Wind Pressure Rain
since 9am
mm
Weather Cloud Vis
km
Sea
Height
m
Swell
Dir
 
Speed
knots
Gust
knots
hPa Trend Height
m
Period
s
Dir
28/03:00am 24.2 ESE 2 4 1010.7 - 7.0 Rain - - - - - -
28/02:30am 24.2 ESE 4 7 1011.0 - 6.8 - - - - - - -
28/02:00am 24.1 SE 4 7 1011.1 - 6.6 - - - - - - -
28/01:30am 24.5 SE 5 7 1011.5 - 6.4 - - - - - - -
28/01:00am 25.3 ESE 6 9 1012.0 - 6.2 - - - - - - -
28/12:30am 25.4 CALM 0 0 1012.3 - 6.2 - - - - - - -
28/12:00am 25.7 ESE 4 8 1012.4 - 6.2 - - - - - - -
 
Date/Time
WST
Temp

°C
Wind Pressure Rain
since 9am
mm
Weather Cloud Vis
km
Sea
Height
m
Swell
Dir
 
Speed
knots
Gust
knots
hPa Trend Height
m
Period
s
Dir
27/11:30pm 25.9 ENE 5 8 1012.7 - 6.2 - - - - - - -
27/11:00pm 25.9 E 5 7 1012.9 - 6.2 - - - - - - -
27/10:30pm 25.8 E 4 6 1013.2 - 6.2 - - - - - - -
27/10:00pm 25.7 E 4 6 1013.3 - 6.2 - - - - - - -
27/09:30pm 25.8 ESE 5 7 1013.2 - 6.2 - - - - - - -
27/09:00pm 25.8 ENE 4 7 1013.6 - 6.2 - - - - - - -
27/08:30pm 25.9 E 5 8 1013.4 - 6.2 - - - - - - -
27/08:00pm 25.8 E 5 11 1012.8 - 6.2 - - - - - - -
27/07:30pm 25.7 E 6 10 1012.7 - 6.2 - - - - - - -
27/07:00pm 25.5 ESE 5 7 1012.3 - 6.2 - - - - - - -
27/06:30pm 24.9 SSE 1 5 1012.2 - 6.2 - - - - - - -
27/06:00pm 24.8 CALM 0 0 1011.9 - 6.2 - - - - - - -
27/05:30pm 24.6 WSW 3 4 1011.7 - 6.2 - - - - - - -
27/05:00pm 24.7 CALM 0 0 1011.3 - 6.2 - - - - - - -
27/04:30pm 24.6 CALM 0 3 1010.9 - 6.2 - - - - - - -
27/04:00pm 24.2 E 3 7 1010.7 - 6.2 - - - - - - -
27/03:30pm 24.0 E 5 7 1010.6 - 6.0 - - - - - - -
27/03:00pm 23.9 E 7 11 1010.8 - 3.2 Rain - - - - - -
27/02:30pm 25.1 E 8 13 1010.8 - 0.0 - - - - - - -
27/02:00pm 26.3 E 8 14 1010.5 - 0.0 - - - - - - -
27/01:30pm 26.8 E 9 15 1010.6 - 0.0 - - - - - - -
27/01:00pm 27.6 E 8 12 1010.8 - 0.0 - - - - - - -
27/12:30pm 28.5 E 8 15 1011.0 - 0.0 - - - - - - -
27/12:00pm 28.1 ENE 10 18 1011.5 - 0.0 - - - - - - -
27/11:30am 27.9 ENE 10 18 1011.7 - 0.0 - - - - - - -
27/11:00am 28.2 ENE 10 17 1012.2 - 0.0 - - - - - - -
27/10:30am 27.8 ENE 8 18 1012.3 - 0.0 - - - - - - -
27/10:00am 27.1 E 8 13 1012.6 - 0.0 - - - - - - -
27/09:30am 27.3 E 7 11 1012.5 - 0.0 - - - - - - -
27/09:00am 27.0 ESE 5 9 1012.4 - 1.2 - - - - - - -
27/08:30am 26.2 E 6 9 1012.4 - 1.2 - - - - - - -
27/08:00am 25.8 ESE 5 7 1012.6 - 1.2 - - - - - - -
27/07:30am 25.7 SE 7 11 1012.3 - 1.2 - - - - - - -
27/07:00am 25.9 ESE 7 14 1012.0 - 1.2 - - - - - - -
27/06:30am 26.0 ESE 7 13 1011.8 - 1.2 - - - - - - -
27/06:00am 26.1 SE 8 18 1010.6 - 1.2 - - - - - - -
27/05:30am 26.4 SSE 6 12 1010.5 - 1.2 - - - - - - -
27/05:00am 26.4 SSE 5 9 1010.5 - 1.2 - - - - - - -
27/04:30am 26.5 SSE 7 15 1010.5 - 1.2 - - - - - - -
27/04:00am 26.4 SSE 9 15 1010.1 - 1.2 - - - - - - -
27/03:30am 25.7 SE 5 10 1009.5 - 1.2 - - - - - - -
27/03:00am 26.4 SE 8 13 1009.9 - 1.2 - - - - - - -
27/02:30am 26.5 SSE 7 14 1010.0 - 1.2 - - - - - - -
27/02:00am 26.4 SSE 7 12 1010.3 - 1.2 - - - - - - -
27/01:30am 26.3 SSE 6 11 1010.5 - 1.2 - - - - - - -
27/01:00am 26.4 SSE 7 11 1010.5 - 1.2 - - - - - - -
27/12:30am 26.1 SSE 5 7 1010.7 - 1.2 - - - - - - -
27/12:00am 26.1 S 6 8 1010.9 - 1.2 Recent precip. - - - - - -
 
Date/Time
WST
Temp

°C
Wind Pressure Rain
since 9am
mm
Weather Cloud Vis
km
Sea
Height
m
Swell
Dir
 
Speed
knots
Gust
knots
hPa Trend Height
m
Period
s
Dir
26/11:30pm 26.1 SSE 4 7 1011.1 - 1.2 - - - - - - -
26/11:00pm 26.1 SE 6 11 1011.6 - 1.0 - - - - - - -
26/10:30pm 25.5 CALM 0 0 1012.1 - 1.0 - - - - - - -
26/10:00pm 25.3 SSE 3 5 1011.8 - 1.0 - - - - - - -
26/09:30pm 25.5 WNW 2 4 1011.9 - 1.0 - - - - - - -
26/09:00pm 25.4 S 4 5 1012.1 - 1.0 Recent precip. - - - - - -
26/08:30pm 26.2 E 7 14 1012.5 - 0.0 - - - - - - -
26/08:00pm 27.3 S 3 4 1011.7 - 0.0 - - - - - - -
26/07:30pm 27.5 S 4 6 1011.7 - 0.0 - - - - - - -
26/07:00pm 27.6 S 4 6 1011.5 - 0.0 - - - - - - -
26/06:30pm 28.0 SSE 6 10 1011.1 - 0.0 - - - - - - -
26/06:00pm 27.7 SSE 4 5 1010.7 - 0.0 - - - - - - -
26/05:30pm 27.8 SSE 4 9 1010.3 - 0.0 - - - - - - -
26/05:00pm 28.0 S 6 9 1009.9 - 0.0 - - - - - - -
26/04:30pm 28.4 SSE 6 11 1009.7 - 0.0 - - - - - - -
26/04:00pm 28.4 SSE 6 12 1009.6 - 0.0 - - - - - - -
26/03:30pm 28.0 SSE 8 15 1009.6 - 0.0 - - - - - - -
26/03:00pm 28.7 S 6 10 1009.5 - 0.0 - - - - - - -
26/02:30pm 28.9 S 6 8 1009.7 - 0.0 - - - - - - -
26/02:00pm 29.3 SE 6 9 1009.8 - 0.0 - - - - - - -
26/01:30pm 29.6 SE 9 16 1009.6 - 0.0 - - - - - - -
26/01:00pm 30.5 SSE 5 11 1009.8 - 0.0 - - - - - - -
26/12:30pm 30.3 S 6 11 1010.4 - 0.0 - - - - - - -
26/12:00pm 31.3 SE 8 16 1010.9 - 0.0 - - - - - - -
26/11:30am 31.2 SE 8 13 1011.3 - 0.0 - - - - - - -
26/11:00am 29.0 SE 5 8 1011.9 - 0.0 - - - - - - -
26/10:30am 30.8 ESE 7 12 1012.1 - 0.0 - - - - - - -
26/10:00am 29.5 SE 8 15 1012.5 - 0.0 - - - - - - -
26/09:30am 30.6 SE 7 10 1012.6 - 0.0 - - - - - - -
26/09:00am 29.4 SSE 7 11 1012.5 - 0.0 - - - - - - -
26/08:30am 28.7 SSW 3 4 1012.8 - 0.0 - - - - - - -
26/08:00am 27.7 SSW 1 4 1012.6 - 0.0 - - - - - - -
26/07:30am 27.0 SSW 4 5 1012.3 - 0.0 - - - - - - -
26/07:00am 26.5 SSE 1 3 1011.9 - 0.0 - - - - - - -
26/06:30am 25.8 CALM 0 0 1011.9 - 0.0 - - - - - - -
26/06:00am 25.2 CALM 0 0 1011.5 - 0.0 - - - - - - -
26/05:30am 25.4 NW 3 4 1011.3 - 0.0 - - - - - - -
26/05:00am 25.6 ESE 1 4 1011.2 - 0.0 - - - - - - -
26/04:30am 26.0 NE 4 6 1011.1 - 0.0 - - - - - - -
26/04:00am 25.3 NE 1 4 1010.6 - 0.0 - - - - - - -
26/03:30am 25.5 CALM 0 0 1010.6 - 0.0 - - - - - - -
26/03:00am 25.7 CALM 0 0 1010.2 - 0.0 - - - - - - -
26/02:30am 25.8 CALM 0 0 1010.4 - 0.0 - - - - - - -
26/02:00am 25.9 CALM 0 0 1010.4 - 0.0 - - - - - - -
26/01:30am 26.6 CALM 0 0 1010.5 - 0.0 - - - - - - -
26/01:00am 26.8 SE 3 4 1010.8 - 0.0 - - - - - - -
26/12:30am 26.7 ESE 3 4 1010.8 - 0.0 - - - - - - -
26/12:00am 26.8 CALM 0 4 1011.1 - 0.0 - - - - - - -
 
Date/Time
WST
Temp

°C
Wind Pressure Rain
since 9am
mm
Weather Cloud Vis
km
Sea
Height
m
Swell
Dir
 
Speed
knots
Gust
knots
hPa Trend Height
m
Period
s
Dir
25/11:30pm 26.9 CALM 0 0 1011.3 - 0.0 - - - - - - -
25/11:00pm 27.4 CALM 0 0 1011.4 - 0.0 - - - - - - -
25/10:30pm 27.8 CALM 0 0 1011.5 - 0.0 - - - - - - -
25/10:00pm 28.6 WNW 2 5 1011.7 - 0.0 - - - - - - -
25/09:30pm 28.8 NNW 4 6 1011.5 - 0.0 - - - - - - -
25/09:00pm 28.9 NNW 4 7 1011.6 - 0.0 - - - - - - -
25/08:30pm 29.0 NW 4 7 1011.4 - 0.0 - - - - - - -
25/08:00pm 29.2 NW 5 8 1011.2 - 0.0 - - - - - - -
25/07:30pm 29.1 NW 5 7 1010.7 - 0.0 - - - - - - -
25/07:00pm 29.4 NW 4 7 1010.3 - 0.0 - - - - - - -
25/06:30pm 29.7 NW 5 7 1010.0 - 0.0 - - - - - - -
25/06:00pm 29.7 NW 5 9 1009.7 - 0.0 - - - - - - -
25/05:30pm 30.0 NNW 5 9 1009.4 - 0.0 - - - - - - -
25/05:00pm 30.9 NNW 8 11 1008.9 - 0.0 - - - - - - -
25/04:30pm 33.3 E 4 5 1008.2 - 0.0 - - - - - - -
25/04:00pm 34.8 ESE 5 8 1008.1 - 0.0 - - - - - - -
25/03:30pm 35.2 S 4 6 1008.1 - 0.0 - - - - - - -
25/03:00pm 34.7 SE 5 7 1007.9 - 0.0 - - - - - - -
25/02:30pm 34.5 SSE 6 9 1007.9 - 0.0 - - - - - - -
25/02:00pm 34.5 SSE 7 14 1008.1 - 0.0 - - - - - - -
25/01:30pm 34.1 S 7 11 1008.4 - 0.0 - - - - - - -
25/01:00pm 34.2 S 5 8 1008.8 - 0.0 - - - - - - -
25/12:30pm 33.7 S 7 13 1009.1 - 0.0 - - - - - - -
25/12:00pm 33.7 SSE 6 12 1009.4 - 0.0 - - - - - - -
25/11:30am 33.4 SSE 6 12 1009.9 - 0.0 - - - - - - -
25/11:00am 32.9 ESE 8 13 1010.5 - 0.0 - - - - - - -
25/10:30am 32.4 SE 6 12 1010.9 - 0.0 - - - - - - -
25/10:00am 32.4 SSE 5 7 1011.2 - 0.0 - - - - - - -
25/09:30am 31.7 SSE 6 10 1011.7 - 0.0 - - - - - - -
25/09:00am 31.3 SE 6 9 1011.9 - 9.0 Recent precip. - - - - - -
25/08:30am 30.9 ESE 5 8 1012.1 - 8.8 - - - - - - -
25/08:00am 30.0 SE 3 6 1012.3 - 8.8 - - - - - - -
25/07:30am 27.8 SW 3 4 1012.0 - 8.8 - - - - - - -
25/07:00am 26.8 S 5 7 1011.8 - 8.8 - - - - - - -
25/06:30am 25.6 S 4 7 1011.6 - 8.8 - - - - - - -
25/06:00am 24.7 S 4 6 1011.4 - 8.8 - - - - - - -
25/05:30am 24.6 SSW 4 6 1011.1 - 8.8 - - - - - - -
25/05:00am 24.1 S 2 4 1010.8 - 8.8 - - - - - - -
25/04:30am 24.5 SW 3 5 1010.6 - 8.8 - - - - - - -
25/04:00am 24.2 SW 2 4 1010.4 - 8.8 - - - - - - -
25/03:30am 24.1 CALM 0 0 1010.2 - 8.8 - - - - - - -

Other Formats:

Comma delimited format used in spreadsheet applications
http://www.bom.gov.au/fwo/IDW60701/IDW60701.94100.axf

JavaScript Object Notation format (JSON) in row-major order
http://www.bom.gov.au/fwo/IDW60701/IDW60701.94100.json